Time;durP1;ratioP1;P1;durP2;ratioP2;P2;SDS_P1;SDS_P2;PMS_P1;PMS_P2;Temp;Humidity;BMP_temperature;BMP_pressure;BME280_temperature;BME280_humidity;BME280_pressure;Samples;Min_cycle;Max_cycle;Signal;HPM_P1;HPM_P2
2024/02/23 00:01:34;;;;;;;1.90;1.00;;;9.30;74.60;;;;;;5035544;28;20203;-65
2024/02/23 00:04:02;;;;;;;4.20;0.98;;;9.30;74.50;;;;;;5035485;28;20199;-64
2024/02/23 00:06:29;;;;;;;1.13;0.80;;;9.30;74.50;;;;;;5035366;28;20209;-65
2024/02/23 00:08:57;;;;;;;3.97;1.10;;;9.30;74.90;;;;;;5034746;28;20325;-65
2024/02/23 00:11:24;;;;;;;2.42;1.30;;;9.30;75.50;;;;;;5034327;28;20667;-63
2024/02/23 00:13:51;;;;;;;2.58;0.93;;;9.20;76.20;;;;;;5033872;28;20740;-65
2024/02/23 00:16:18;;;;;;;1.92;0.88;;;9.20;77.10;;;;;;5034795;28;20203;-64
2024/02/23 00:18:45;;;;;;;1.63;0.93;;;9.20;77.20;;;;;;5034356;28;20318;-64
2024/02/23 00:21:11;;;;;;;4.78;1.52;;;9.20;76.90;;;;;;5033725;28;20208;-64
2024/02/23 00:23:38;;;;;;;1.67;0.80;;;9.30;76.30;;;;;;5033209;28;20673;-65
2024/02/23 00:26:06;;;;;;;2.15;0.85;;;9.30;75.70;;;;;;5033917;28;20208;-65
2024/02/23 00:28:33;;;;;;;1.60;1.05;;;9.30;74.80;;;;;;5034973;28;20260;-64
2024/02/23 00:30:59;;;;;;;2.45;0.93;;;9.30;74.40;;;;;;5037741;28;20672;-63
2024/02/23 00:33:26;;;;;;;2.97;0.95;;;9.20;74.10;;;;;;5037506;28;20674;-64
2024/02/23 00:35:53;;;;;;;2.25;0.95;;;9.30;74.50;;;;;;5037479;28;20206;-66
2024/02/23 00:38:20;;;;;;;3.08;1.05;;;9.30;74.70;;;;;;5037478;28;20225;-63
2024/02/23 00:40:46;;;;;;;1.50;0.93;;;9.30;74.60;;;;;;5037629;28;20201;-63
2024/02/23 00:43:14;;;;;;;2.35;0.95;;;9.20;74.70;;;;;;5036977;28;20575;-65
2024/02/23 00:45:41;;;;;;;3.72;1.10;;;9.30;74.20;;;;;;5037011;28;20199;-65
2024/02/23 00:48:08;;;;;;;1.50;0.80;;;9.30;74.00;;;;;;5037065;28;20255;-64
2024/02/23 00:50:35;;;;;;;3.77;0.90;;;9.30;74.00;;;;;;5037413;28;20199;-63
2024/02/23 00:53:02;;;;;;;1.47;0.70;;;9.30;73.60;;;;;;5037695;28;20451;-65
2024/02/23 00:55:28;;;;;;;4.20;1.27;;;9.30;73.70;;;;;;5037255;28;20447;-64
2024/02/23 00:57:56;;;;;;;0.93;0.60;;;9.30;74.40;;;;;;5037644;28;20492;-66
2024/02/23 01:00:24;;;;;;;1.40;0.95;;;9.30;74.00;;;;;;5037312;28;20207;-63
2024/02/23 01:02:51;;;;;;;1.73;1.00;;;9.30;73.60;;;;;;5037163;28;20248;-64
2024/02/23 01:05:18;;;;;;;0.90;0.75;;;9.20;73.50;;;;;;5037541;28;20204;-63
2024/02/23 01:07:45;;;;;;;3.67;0.90;;;9.20;73.20;;;;;;5037024;28;20222;-64
2024/02/23 01:10:12;;;;;;;0.80;0.50;;;9.20;73.60;;;;;;5037478;28;20442;-65
2024/02/23 01:12:38;;;;;;;2.00;0.68;;;9.20;74.10;;;;;;5037626;28;20204;-65
2024/02/23 01:15:06;;;;;;;1.80;0.77;;;9.20;74.10;;;;;;5037057;28;20199;-65
2024/02/23 01:17:34;;;;;;;2.63;1.27;;;9.10;74.00;;;;;;5037080;28;20230;-64
2024/02/23 01:20:01;;;;;;;1.95;0.60;;;9.00;74.30;;;;;;5036907;28;20208;-65
2024/02/23 01:22:28;;;;;;;0.95;0.60;;;9.00;74.80;;;;;;5037370;28;20219;-63
2024/02/23 01:24:54;;;;;;;1.73;0.60;;;8.90;75.30;;;;;;5036777;28;20207;-64
2024/02/23 01:27:21;;;;;;;1.58;0.73;;;8.80;75.60;;;;;;5037300;28;20233;-65
2024/02/23 01:29:49;;;;;;;0.65;0.50;;;8.80;76.30;;;;;;5037147;28;20226;-64
2024/02/23 01:32:15;;;;;;;0.80;0.60;;;8.80;76.80;;;;;;5037289;28;20201;-63
2024/02/23 01:34:43;;;;;;;0.70;0.70;;;8.80;77.30;;;;;;5036835;28;20226;-62
2024/02/23 01:37:11;;;;;;;0.88;0.70;;;8.80;77.80;;;;;;5036738;28;20236;-63
2024/02/23 01:39:38;;;;;;;1.77;0.60;;;8.70;78.80;;;;;;5036260;28;20235;-62
2024/02/23 01:42:05;;;;;;;1.67;0.70;;;8.60;79.90;;;;;;5037060;28;20205;-64
2024/02/23 01:44:32;;;;;;;1.10;0.70;;;8.60;81.70;;;;;;5036695;28;20203;-64
2024/02/23 01:46:59;;;;;;;0.60;0.60;;;8.50;87.50;;;;;;5036577;28;20205;-63
2024/02/23 01:49:29;;;;;;;2.50;0.68;;;8.30;90.40;;;;;;5036585;28;20195;-64
2024/02/23 01:51:58;;;;;;;1.35;0.60;;;8.20;93.30;;;;;;5036254;28;20228;-64
2024/02/23 01:54:26;;;;;;;0.60;0.50;;;8.00;96.80;;;;;;5035978;28;20553;-64
2024/02/23 01:56:53;;;;;;;0.82;0.60;;;7.90;99.00;;;;;;5036500;28;20191;-64
2024/02/23 01:59:20;;;;;;;0.98;0.45;;;7.70;99.90;;;;;;5036370;28;20220;-64
2024/02/23 02:01:47;;;;;;;0.70;0.43;;;7.60;99.90;;;;;;5036218;28;20300;-64
2024/02/23 02:04:13;;;;;;;0.60;0.40;;;7.50;99.90;;;;;;5036388;28;20602;-64
2024/02/23 02:06:40;;;;;;;0.70;0.70;;;7.40;99.90;;;;;;5035790;28;20671;-64
2024/02/23 02:09:08;;;;;;;0.65;0.50;;;7.30;99.90;;;;;;5036120;28;20228;-64
2024/02/23 02:11:35;;;;;;;0.50;0.43;;;7.10;99.90;;;;;;5035784;28;20586;-64
2024/02/23 02:14:02;;;;;;;0.60;0.50;;;6.90;99.90;;;;;;5036334;28;20587;-64
2024/02/23 02:16:29;;;;;;;0.75;0.50;;;6.80;99.90;;;;;;5036551;28;20207;-64
2024/02/23 02:18:55;;;;;;;0.60;0.40;;;6.60;99.90;;;;;;5035573;28;20240;-65
2024/02/23 02:21:25;;;;;;;0.60;0.40;;;6.50;99.90;;;;;;5035612;28;20228;-63
2024/02/23 02:23:51;;;;;;;0.60;0.45;;;6.40;99.90;;;;;;5035425;28;20283;-63
2024/02/23 02:26:20;;;;;;;0.60;0.50;;;6.40;99.90;;;;;;5035966;28;20207;-63
2024/02/23 02:28:47;;;;;;;0.50;0.40;;;6.40;99.90;;;;;;5035581;28;20217;-63
2024/02/23 02:31:13;;;;;;;0.60;0.55;;;6.40;99.90;;;;;;5036009;28;20674;-65
2024/02/23 02:33:41;;;;;;;0.50;0.40;;;6.40;99.90;;;;;;5035742;28;20255;-64
2024/02/23 02:36:08;;;;;;;0.50;0.40;;;6.30;99.90;;;;;;5035506;28;20577;-65
2024/02/23 02:38:34;;;;;;;0.90;0.60;;;6.30;99.90;;;;;;5035470;28;20620;-64
2024/02/23 02:41:01;;;;;;;0.60;0.50;;;6.30;99.90;;;;;;5036505;28;20636;-63
2024/02/23 02:43:29;;;;;;;1.15;0.63;;;6.30;99.90;;;;;;5036277;28;20291;-64
2024/02/23 02:45:56;;;;;;;0.70;0.60;;;6.30;99.90;;;;;;5036687;28;20205;-64
2024/02/23 02:48:23;;;;;;;0.50;0.40;;;6.40;99.90;;;;;;5035767;28;20587;-64
2024/02/23 02:50:51;;;;;;;0.70;0.50;;;6.40;99.90;;;;;;5035241;28;20204;-63
2024/02/23 02:53:18;;;;;;;1.58;0.60;;;6.40;99.90;;;;;;5034327;28;20200;-63
2024/02/23 02:55:45;;;;;;;0.60;0.60;;;6.40;99.90;;;;;;5034878;28;20690;-63
2024/02/23 02:58:12;;;;;;;0.70;0.60;;;6.40;99.90;;;;;;5035107;28;20231;-63
2024/02/23 03:00:40;;;;;;;0.90;0.68;;;6.40;99.90;;;;;;5035060;28;20777;-64
2024/02/23 03:03:07;;;;;;;1.00;0.60;;;6.40;99.90;;;;;;5034812;28;20679;-64
2024/02/23 03:05:34;;;;;;;0.85;0.70;;;6.40;99.90;;;;;;5036092;28;20670;-64
2024/02/23 03:08:01;;;;;;;1.25;0.90;;;6.30;99.90;;;;;;5036167;28;20586;-65
2024/02/23 03:10:28;;;;;;;1.40;0.70;;;6.30;99.90;;;;;;5035447;28;20205;-66
2024/02/23 03:12:54;;;;;;;1.42;0.80;;;6.20;99.90;;;;;;5034959;28;20671;-64
2024/02/23 03:15:21;;;;;;;0.70;0.60;;;6.10;99.90;;;;;;5035507;28;20259;-65
2024/02/23 03:17:49;;;;;;;0.95;0.85;;;6.00;99.90;;;;;;5034457;28;20243;-64
2024/02/23 03:20:17;;;;;;;1.63;0.90;;;6.00;99.90;;;;;;5034621;28;20273;-63
2024/02/23 03:22:43;;;;;;;1.83;0.93;;;5.90;99.90;;;;;;5034798;28;20215;-63
2024/02/23 03:25:10;;;;;;;3.90;0.90;;;5.90;99.90;;;;;;5034893;28;20204;-63
2024/02/23 03:27:38;;;;;;;2.10;0.90;;;5.90;99.90;;;;;;5034948;28;20224;-65
2024/02/23 03:30:07;;;;;;;1.48;1.23;;;5.90;99.90;;;;;;5035063;28;20204;-62
2024/02/23 03:32:37;;;;;;;5.05;1.23;;;5.90;99.90;;;;;;5034347;28;20205;-63
2024/02/23 03:35:07;;;;;;;2.05;1.02;;;5.90;99.90;;;;;;5034604;28;20208;-63
2024/02/23 03:37:33;;;;;;;1.50;0.90;;;5.90;99.90;;;;;;5034182;28;20227;-64
2024/02/23 03:40:00;;;;;;;0.82;0.80;;;5.90;99.90;;;;;;5034592;28;20220;-65
2024/02/23 03:42:27;;;;;;;2.40;1.20;;;5.80;99.90;;;;;;5034147;28;20663;-64
2024/02/23 03:44:54;;;;;;;1.85;1.00;;;5.80;99.90;;;;;;5034486;28;20600;-64
2024/02/23 03:47:21;;;;;;;2.30;1.05;;;5.70;99.90;;;;;;5034562;28;20315;-64
2024/02/23 03:49:47;;;;;;;2.10;1.00;;;5.70;99.90;;;;;;5033547;28;20210;-63
2024/02/23 03:52:15;;;;;;;3.90;1.30;;;5.70;99.90;;;;;;5033764;28;20203;-64
2024/02/23 03:54:42;;;;;;;1.27;1.00;;;5.70;99.90;;;;;;5033772;28;20200;-63
2024/02/23 03:57:09;;;;;;;3.15;1.48;;;5.80;99.90;;;;;;5033758;28;20597;-65
2024/02/23 03:59:37;;;;;;;2.20;1.10;;;5.80;99.90;;;;;;5033690;28;20721;-63
2024/02/23 04:02:04;;;;;;;2.83;1.30;;;5.80;99.90;;;;;;5034101;28;20205;-63
2024/02/23 04:04:31;;;;;;;3.13;1.40;;;5.80;99.90;;;;;;5034013;28;20211;-64
2024/02/23 04:06:58;;;;;;;5.57;1.70;;;5.80;99.90;;;;;;5033748;28;20210;-63
2024/02/23 04:09:26;;;;;;;1.55;1.45;;;5.80;99.90;;;;;;5034820;28;20203;-64
2024/02/23 04:13:14;;;;;;;1.33;1.20;;;5.80;99.90;;;;;;5112259;27;20553;-63
2024/02/23 04:15:41;;;;;;;4.60;1.30;;;5.90;99.90;;;;;;5111533;28;20555;-64
2024/02/23 04:18:07;;;;;;;1.70;1.38;;;5.90;99.90;;;;;;5112017;28;20252;-64
2024/02/23 04:20:34;;;;;;;5.07;2.00;;;6.00;99.90;;;;;;5111933;28;20216;-63
2024/02/23 04:23:01;;;;;;;3.15;1.50;;;6.00;99.90;;;;;;5112313;28;20200;-63
2024/02/23 04:25:28;;;;;;;3.55;1.60;;;6.00;99.90;;;;;;5111237;28;20689;-63
2024/02/23 04:27:54;;;;;;;1.63;1.38;;;6.10;99.90;;;;;;5111220;28;20228;-63
2024/02/23 04:30:23;;;;;;;2.50;1.73;;;6.10;99.90;;;;;;5110771;28;20674;-64
2024/02/23 04:32:49;;;;;;;1.83;1.73;;;6.20;99.90;;;;;;5111049;28;20227;-63
2024/02/23 04:35:17;;;;;;;4.68;2.47;;;6.20;99.90;;;;;;5110892;28;20263;-63
2024/02/23 04:37:44;;;;;;;3.17;1.90;;;6.30;99.90;;;;;;5110314;28;20225;-63
2024/02/23 04:40:12;;;;;;;2.78;2.00;;;6.30;99.90;;;;;;5110387;28;20202;-63
2024/02/23 04:42:39;;;;;;;3.22;1.75;;;6.30;99.90;;;;;;5110612;28;20281;-63
2024/02/23 04:45:07;;;;;;;4.03;2.15;;;6.30;99.90;;;;;;5110626;28;20202;-63
2024/02/23 04:47:35;;;;;;;3.25;2.05;;;6.40;99.90;;;;;;5111328;28;20224;-63
2024/02/23 04:50:03;;;;;;;3.13;2.25;;;6.40;99.90;;;;;;5111407;28;20206;-62
2024/02/23 04:52:30;;;;;;;2.38;1.17;;;6.40;99.90;;;;;;5110130;28;20214;-63
2024/02/23 04:54:56;;;;;;;2.42;1.83;;;6.40;99.90;;;;;;5110376;28;20197;-63
2024/02/23 04:57:23;;;;;;;5.20;1.73;;;6.40;99.90;;;;;;5110079;28;20594;-63
2024/02/23 04:59:50;;;;;;;1.65;1.55;;;6.40;99.90;;;;;;5109742;28;20201;-65
2024/02/23 05:02:16;;;;;;;5.82;2.05;;;6.40;99.90;;;;;;5096317;22;20242;-64
2024/02/23 05:04:45;;;;;;;3.47;1.90;;;6.40;99.90;;;;;;5051587;28;20211;-63
2024/02/23 05:07:11;;;;;;;3.72;1.52;;;6.40;99.90;;;;;;5052024;28;20203;-64
2024/02/23 05:09:40;;;;;;;5.50;1.80;;;6.40;99.90;;;;;;5052360;28;20678;-63
2024/02/23 05:12:08;;;;;;;4.25;1.40;;;6.40;99.90;;;;;;5051100;28;20231;-62
2024/02/23 05:14:34;;;;;;;3.40;1.50;;;6.40;99.90;;;;;;5051088;28;20209;-64
2024/02/23 05:17:01;;;;;;;3.45;1.23;;;6.40;99.70;;;;;;5051052;28;20702;-63
2024/02/23 05:19:28;;;;;;;2.00;1.10;;;6.40;99.60;;;;;;5052383;28;20214;-63
2024/02/23 05:21:56;;;;;;;1.85;1.20;;;6.50;99.50;;;;;;5051305;28;20221;-63
2024/02/23 05:24:23;;;;;;;4.07;1.55;;;6.40;99.20;;;;;;5039805;28;20212;-62
2024/02/23 05:26:49;;;;;;;2.05;1.20;;;6.40;98.70;;;;;;5037758;28;20212;-63
2024/02/23 05:29:17;;;;;;;1.20;1.02;;;6.40;98.30;;;;;;5037195;28;20212;-63
2024/02/23 05:31:49;;;;;;;2.83;1.30;;;6.40;98.00;;;;;;5037320;28;20227;-63
2024/02/23 05:34:16;;;;;;;4.18;1.42;;;6.40;97.70;;;;;;5037223;28;20204;-63
2024/02/23 05:36:44;;;;;;;1.25;1.15;;;6.30;97.60;;;;;;5036667;28;20208;-63
2024/02/23 05:39:12;;;;;;;2.08;1.02;;;6.30;97.60;;;;;;5036898;28;20211;-63
2024/02/23 05:41:39;;;;;;;1.55;1.20;;;6.30;97.60;;;;;;5037226;28;20228;-63
2024/02/23 05:44:06;;;;;;;5.93;1.20;;;6.30;97.50;;;;;;5036745;28;20209;-63
2024/02/23 05:46:33;;;;;;;3.15;1.45;;;6.30;97.30;;;;;;5036746;28;20671;-60
2024/02/23 05:49:00;;;;;;;4.40;1.30;;;6.40;96.70;;;;;;5036431;28;20258;-61
2024/02/23 05:51:29;;;;;;;1.95;1.52;;;6.40;96.30;;;;;;5037353;28;20228;-63
2024/02/23 05:53:55;;;;;;;7.78;1.75;;;6.40;95.90;;;;;;5036569;28;20245;-63
2024/02/23 05:56:24;;;;;;;2.28;1.10;;;6.40;95.90;;;;;;5036950;28;20205;-63
2024/02/23 05:58:51;;;;;;;3.05;1.92;;;6.50;95.50;;;;;;5036813;28;20258;-62
2024/02/23 06:01:18;;;;;;;1.73;1.45;;;6.50;94.90;;;;;;5038195;28;20239;-63
2024/02/23 06:03:45;;;;;;;2.75;1.80;;;6.50;94.90;;;;;;5041864;28;20673;-63
2024/02/23 06:06:12;;;;;;;2.67;1.17;;;6.50;94.80;;;;;;5041348;28;20215;-63
2024/02/23 06:08:39;;;;;;;2.67;1.10;;;6.50;94.60;;;;;;5039826;28;20675;-62
2024/02/23 06:11:05;;;;;;;1.90;1.00;;;6.40;94.50;;;;;;5041676;28;20714;-64
2024/02/23 06:13:33;;;;;;;2.25;1.05;;;6.40;94.40;;;;;;5041745;28;20235;-63
2024/02/23 06:16:00;;;;;;;2.25;1.33;;;6.40;94.50;;;;;;5041020;28;20244;-62
2024/02/23 06:18:27;;;;;;;1.77;1.00;;;6.30;94.70;;;;;;5039762;28;20210;-62
2024/02/23 06:20:54;;;;;;;1.75;1.35;;;6.40;94.90;;;;;;5038426;28;20215;-63
2024/02/23 06:23:21;;;;;;;3.45;1.42;;;6.40;95.10;;;;;;5038503;28;20206;-63
2024/02/23 06:25:48;;;;;;;2.17;1.50;;;6.40;95.30;;;;;;5038289;28;20208;-63
2024/02/23 06:28:15;;;;;;;2.80;1.35;;;6.40;95.30;;;;;;5038070;28;20205;-64
2024/02/23 06:30:43;;;;;;;1.40;1.15;;;6.40;95.30;;;;;;5037616;28;20213;-63
2024/02/23 06:33:10;;;;;;;2.35;1.42;;;6.40;95.30;;;;;;5037529;28;20229;-63
2024/02/23 06:35:37;;;;;;;3.28;1.70;;;6.40;95.40;;;;;;5037403;28;20207;-63
2024/02/23 06:38:05;;;;;;;4.40;1.30;;;6.40;95.40;;;;;;5037136;28;20229;-62
2024/02/23 06:40:32;;;;;;;2.40;1.60;;;6.40;95.50;;;;;;5037298;28;20208;-63
2024/02/23 06:42:59;;;;;;;2.70;1.88;;;6.30;95.80;;;;;;5037086;28;20221;-63
2024/02/23 06:45:25;;;;;;;7.65;1.67;;;6.30;95.80;;;;;;5037761;28;20232;-61
2024/02/23 06:47:54;;;;;;;2.22;1.10;;;6.30;96.00;;;;;;5038202;28;20290;-63
2024/02/23 06:50:21;;;;;;;2.08;1.58;;;6.20;96.20;;;;;;5039803;28;20220;-63
2024/02/23 06:52:49;;;;;;;2.35;1.48;;;6.20;96.30;;;;;;5037407;28;20282;-63
2024/02/23 06:55:17;;;;;;;2.42;1.50;;;6.20;96.40;;;;;;5036827;28;20236;-64
2024/02/23 06:57:44;;;;;;;7.40;2.08;;;6.30;96.30;;;;;;5036481;28;20278;-64
2024/02/23 07:00:11;;;;;;;3.08;1.30;;;6.30;96.00;;;;;;5036053;28;20211;-63
2024/02/23 07:02:38;;;;;;;1.92;1.42;;;6.30;96.00;;;;;;5035674;28;20229;-63
2024/02/23 07:05:07;;;;;;;4.05;1.92;;;6.40;95.90;;;;;;5036021;28;20699;-63
2024/02/23 07:07:34;;;;;;;3.30;1.45;;;6.40;95.80;;;;;;5037609;28;20208;-63
2024/02/23 07:10:01;;;;;;;2.45;1.63;;;6.50;95.70;;;;;;5036488;28;20210;-63
2024/02/23 07:12:28;;;;;;;2.60;1.40;;;6.50;95.50;;;;;;5037162;28;20244;-62
2024/02/23 07:14:55;;;;;;;2.55;1.50;;;6.60;95.40;;;;;;5036518;28;20205;-62
2024/02/23 07:17:22;;;;;;;2.17;1.30;;;6.60;94.90;;;;;;5036042;28;20205;-63
2024/02/23 07:19:50;;;;;;;3.80;1.27;;;6.70;94.80;;;;;;5036226;28;20294;-63
2024/02/23 07:22:18;;;;;;;2.97;1.20;;;6.70;94.60;;;;;;5035469;28;20228;-63
2024/02/23 07:24:45;;;;;;;4.45;1.08;;;6.80;94.40;;;;;;5035025;28;20209;-63
2024/02/23 07:27:12;;;;;;;1.00;0.90;;;6.80;94.00;;;;;;5035290;28;20201;-63
2024/02/23 07:29:39;;;;;;;4.45;1.20;;;6.90;94.00;;;;;;5034888;28;20713;-63
2024/02/23 07:32:06;;;;;;;2.55;1.27;;;6.90;94.00;;;;;;5034676;28;20244;-63
2024/02/23 07:34:33;;;;;;;4.10;1.20;;;6.90;93.90;;;;;;5034987;28;20573;-62
2024/02/23 07:37:00;;;;;;;3.72;1.45;;;7.00;93.80;;;;;;5035458;28;20201;-63
2024/02/23 07:39:28;;;;;;;3.65;1.38;;;7.10;93.70;;;;;;5035390;28;20204;-63
2024/02/23 07:41:55;;;;;;;6.53;1.90;;;7.10;93.40;;;;;;5035486;28;20229;-67
2024/02/23 07:44:21;;;;;;;3.25;1.25;;;7.10;93.00;;;;;;5036230;28;20573;-64
2024/02/23 07:46:48;;;;;;;2.38;1.00;;;7.20;92.50;;;;;;5035102;28;20209;-63
2024/02/23 07:49:15;;;;;;;1.65;1.00;;;7.20;92.00;;;;;;5034502;28;20208;-63
2024/02/23 07:51:41;;;;;;;3.65;1.48;;;7.20;91.80;;;;;;5034483;28;20228;-64
2024/02/23 07:54:08;;;;;;;2.97;1.10;;;7.30;91.40;;;;;;5034715;28;20221;-63
2024/02/23 07:56:36;;;;;;;1.35;0.88;;;7.30;91.30;;;;;;5035501;28;20197;-61
2024/02/23 07:59:03;;;;;;;1.55;1.02;;;7.30;91.10;;;;;;5035207;28;20263;-62
2024/02/23 08:01:30;;;;;;;3.95;1.30;;;7.40;90.90;;;;;;5035510;28;20237;-64
2024/02/23 08:03:57;;;;;;;3.38;1.55;;;7.40;90.80;;;;;;5034945;28;20206;-62
2024/02/23 08:06:25;;;;;;;1.35;0.77;;;7.50;90.30;;;;;;5034869;28;20209;-63
2024/02/23 08:08:53;;;;;;;5.50;1.33;;;7.60;90.10;;;;;;5035274;28;20209;-63
2024/02/23 08:11:20;;;;;;;3.50;1.17;;;7.60;90.00;;;;;;5034626;28;20226;-63
2024/02/23 08:13:48;;;;;;;4.35;1.50;;;7.70;89.70;;;;;;5035740;28;20234;-63
2024/02/23 08:16:17;;;;;;;1.45;1.20;;;7.70;89.20;;;;;;5034863;28;20205;-63
2024/02/23 08:18:43;;;;;;;4.78;1.20;;;7.70;88.70;;;;;;5035221;28;20201;-63
2024/02/23 08:21:11;;;;;;;2.85;1.20;;;7.70;88.30;;;;;;5035515;28;20702;-63
2024/02/23 08:23:38;;;;;;;3.85;1.10;;;7.80;88.60;;;;;;5036092;28;20673;-62
2024/02/23 08:26:04;;;;;;;3.72;1.05;;;7.80;88.10;;;;;;5035893;28;20209;-64
2024/02/23 08:28:31;;;;;;;7.15;1.40;;;7.90;87.80;;;;;;5036194;28;20205;-62
2024/02/23 08:30:59;;;;;;;3.30;1.13;;;7.90;87.50;;;;;;5034693;28;20214;-63
2024/02/23 08:33:27;;;;;;;3.75;1.90;;;8.00;87.40;;;;;;5034751;28;20226;-63
2024/02/23 08:35:53;;;;;;;2.75;1.02;;;8.10;86.20;;;;;;5035157;28;20677;-64
2024/02/23 08:38:20;;;;;;;2.17;1.13;;;8.10;85.40;;;;;;5035647;28;20601;-64
2024/02/23 08:40:47;;;;;;;2.70;0.85;;;8.30;84.90;;;;;;5035509;28;20206;-62
2024/02/23 08:43:15;;;;;;;2.28;1.17;;;8.40;83.70;;;;;;5035914;28;20204;-63
2024/02/23 08:45:41;;;;;;;1.70;0.90;;;8.40;82.30;;;;;;5034979;28;20285;-64
2024/02/23 08:48:14;;;;;;;1.70;1.20;;;8.50;81.10;;;;;;5035282;28;20202;-63
2024/02/23 08:50:41;;;;;;;3.38;0.90;;;8.60;79.40;;;;;;5036420;28;20192;-63
2024/02/23 08:53:08;;;;;;;3.10;1.20;;;8.50;78.70;;;;;;5042100;28;20260;-63
2024/02/23 08:55:35;;;;;;;1.30;0.82;;;8.40;78.00;;;;;;5046622;28;20203;-63
2024/02/23 08:58:01;;;;;;;1.88;0.93;;;8.30;77.60;;;;;;5047231;28;20213;-63
2024/02/23 09:00:28;;;;;;;1.48;0.80;;;8.30;77.50;;;;;;5050157;28;20207;-63
2024/02/23 09:02:55;;;;;;;4.80;1.85;;;8.30;77.50;;;;;;5046761;28;20291;-63
2024/02/23 09:05:23;;;;;;;3.65;1.20;;;8.40;76.70;;;;;;5045965;28;20210;-64
2024/02/23 09:07:50;;;;;;;5.80;1.40;;;8.50;76.50;;;;;;5048460;28;20216;-63
2024/02/23 09:10:17;;;;;;;3.50;1.05;;;8.60;75.20;;;;;;5048806;28;20286;-63
2024/02/23 09:12:44;;;;;;;3.05;0.93;;;8.70;74.80;;;;;;5046915;28;20236;-62
2024/02/23 09:15:11;;;;;;;3.25;0.93;;;8.80;74.30;;;;;;5045075;28;20209;-63
2024/02/23 09:17:38;;;;;;;2.67;0.90;;;9.00;73.50;;;;;;5043058;28;20203;-62
2024/02/23 09:20:07;;;;;;;2.60;0.68;;;9.10;72.90;;;;;;5043004;28;20307;-63
2024/02/23 09:22:35;;;;;;;3.60;0.95;;;9.20;71.40;;;;;;5045070;28;20231;-63
2024/02/23 09:25:05;;;;;;;2.00;0.80;;;9.30;70.50;;;;;;5052974;28;20211;-63
2024/02/23 09:27:31;;;;;;;1.40;0.70;;;9.40;69.10;;;;;;5045564;28;20455;-64
2024/02/23 09:29:58;;;;;;;3.63;0.80;;;9.40;68.70;;;;;;5041241;28;20671;-63
2024/02/23 09:32:25;;;;;;;2.57;0.97;;;9.50;68.40;;;;;;5041358;28;20465;-64
2024/02/23 09:34:52;;;;;;;2.67;1.00;;;9.50;67.60;;;;;;5039383;28;20450;-63
2024/02/23 09:37:18;;;;;;;1.30;1.03;;;9.50;66.80;;;;;;5038951;28;20448;-63
2024/02/23 09:39:46;;;;;;;8.63;1.17;;;9.40;65.80;;;;;;5038004;28;20447;-63
2024/02/23 09:42:13;;;;;;;3.43;0.90;;;9.40;66.00;;;;;;5037208;28;20458;-63
2024/02/23 09:44:42;;;;;;;3.38;1.10;;;9.40;66.00;;;;;;5037157;28;20444;-64
2024/02/23 09:47:11;;;;;;;1.73;0.73;;;9.60;66.30;;;;;;5037265;28;20211;-64
2024/02/23 09:49:39;;;;;;;3.83;0.70;;;9.70;65.50;;;;;;5037195;28;20456;-63
2024/02/23 09:52:09;;;;;;;2.13;0.90;;;9.80;65.40;;;;;;5037621;28;20468;-63
2024/02/23 09:54:36;;;;;;;2.17;0.80;;;9.90;65.00;;;;;;5037597;28;20286;-63
2024/02/23 09:57:09;;;;;;;1.80;0.90;;;9.90;64.40;;;;;;5037304;28;20455;-63
2024/02/23 09:59:36;;;;;;;5.97;1.10;;;10.00;63.50;;;;;;5037384;28;20423;-63
2024/02/23 10:02:06;;;;;;;1.37;0.80;;;10.00;63.00;;;;;;5036676;28;20475;-63
2024/02/23 10:04:34;;;;;;;3.63;0.90;;;10.00;62.40;;;;;;5037307;28;20499;-63
2024/02/23 10:07:00;;;;;;;1.50;0.90;;;10.00;61.80;;;;;;5037519;28;20461;-63
2024/02/23 10:09:27;;;;;;;1.03;0.80;;;9.80;62.70;;;;;;5036639;28;20552;-63
2024/02/23 10:11:55;;;;;;;1.75;0.80;;;9.80;63.40;;;;;;5037360;28;20470;-63
2024/02/23 10:14:23;;;;;;;2.63;1.03;;;9.70;63.40;;;;;;5037059;28;20223;-62
2024/02/23 10:16:53;;;;;;;1.40;0.90;;;9.70;63.40;;;;;;5036778;28;20448;-63
2024/02/23 10:19:20;;;;;;;1.37;0.77;;;9.60;62.60;;;;;;5037847;28;20442;-62
2024/02/23 10:21:47;;;;;;;4.30;1.03;;;9.40;63.10;;;;;;5037998;28;20470;-62
2024/02/23 10:24:14;;;;;;;4.10;0.90;;;9.30;63.90;;;;;;5040285;28;20473;-63
2024/02/23 10:26:40;;;;;;;4.63;0.90;;;9.30;63.90;;;;;;5039087;28;20199;-62
2024/02/23 10:29:08;;;;;;;2.20;1.17;;;9.30;64.30;;;;;;5037182;28;20204;-63
2024/02/23 10:31:37;;;;;;;2.20;0.80;;;9.30;64.60;;;;;;5037905;28;20471;-62
2024/02/23 10:34:09;;;;;;;2.90;1.30;;;9.40;64.40;;;;;;5037535;28;21015;-63
2024/02/23 10:36:39;;;;;;;3.63;0.90;;;9.40;64.30;;;;;;5037710;28;20438;-62
2024/02/23 10:39:09;;;;;;;2.17;0.93;;;9.50;64.50;;;;;;5038827;28;20451;-64
2024/02/23 10:41:37;;;;;;;2.60;1.00;;;9.50;64.20;;;;;;5038365;28;20228;-63
2024/02/23 10:44:05;;;;;;;2.93;1.17;;;9.60;63.80;;;;;;5037630;28;20442;-62
2024/02/23 10:46:32;;;;;;;1.87;0.87;;;9.60;64.00;;;;;;5039057;28;20442;-62
2024/02/23 10:49:02;;;;;;;1.40;0.70;;;9.60;64.00;;;;;;5039447;28;20951;-63
2024/02/23 10:51:29;;;;;;;1.93;1.10;;;9.70;63.40;;;;;;5037062;28;20838;-64
2024/02/23 10:53:57;;;;;;;6.63;2.10;;;9.70;62.80;;;;;;5036991;28;20490;-63
2024/02/23 10:56:25;;;;;;;1.43;0.80;;;9.80;62.70;;;;;;5036789;28;20995;-62
2024/02/23 10:58:52;;;;;;;1.97;1.00;;;9.80;62.60;;;;;;5038202;28;20447;-63
2024/02/23 11:01:20;;;;;;;1.67;0.70;;;9.90;62.20;;;;;;5037135;28;20854;-63
2024/02/23 11:03:50;;;;;;;2.53;1.00;;;9.90;61.70;;;;;;5037428;28;20461;-62
2024/02/23 11:06:20;;;;;;;3.70;1.00;;;9.80;61.10;;;;;;5038682;28;20512;-64
2024/02/23 11:08:48;;;;;;;1.23;0.80;;;9.80;61.60;;;;;;5037633;28;20433;-64
2024/02/23 11:11:18;;;;;;;1.93;0.90;;;9.80;61.10;;;;;;5038284;28;20474;-63
2024/02/23 11:13:45;;;;;;;2.50;1.00;;;9.70;61.20;;;;;;5039923;28;20478;-64
2024/02/23 11:16:22;;;;;;;1.90;0.90;;;9.80;61.30;;;;;;5044110;28;20584;-63
2024/02/23 11:18:48;;;;;;;2.37;1.00;;;9.80;61.20;;;;;;5046568;28;20478;-62
2024/02/23 11:21:15;;;;;;;1.53;0.70;;;9.80;60.70;;;;;;5039644;28;20469;-63
2024/02/23 11:23:44;;;;;;;5.05;1.20;;;9.90;60.80;;;;;;5038203;28;20465;-63
2024/02/23 11:26:12;;;;;;;0.97;0.70;;;9.90;60.90;;;;;;5038574;28;20209;-63
2024/02/23 11:28:48;;;;;;;3.77;0.90;;;10.00;60.00;;;;;;5039433;28;20443;-63
2024/02/23 11:31:15;;;;;;;2.83;1.00;;;10.10;59.80;;;;;;5037823;28;20457;-62
2024/02/23 11:33:49;;;;;;;2.53;0.80;;;10.10;58.90;;;;;;5042118;28;20487;-63
2024/02/23 11:36:23;;;;;;;2.90;1.00;;;10.00;59.00;;;;;;5039786;28;20456;-63
2024/02/23 11:38:54;;;;;;;2.90;0.97;;;10.10;59.20;;;;;;5035926;28;20770;-63
2024/02/23 11:41:23;;;;;;;1.10;0.80;;;10.10;58.80;;;;;;5037754;28;20458;-63
2024/02/23 11:43:50;;;;;;;2.50;0.97;;;10.10;58.50;;;;;;5051171;28;20442;-62
2024/02/23 11:46:17;;;;;;;3.37;1.17;;;10.10;58.60;;;;;;5050856;28;20450;-63
2024/02/23 11:48:43;;;;;;;1.40;0.77;;;10.20;58.40;;;;;;5040561;28;20813;-63
2024/02/23 11:51:10;;;;;;;1.77;0.90;;;10.20;58.50;;;;;;5037628;28;20466;-63
2024/02/23 11:53:38;;;;;;;3.33;1.30;;;10.30;58.40;;;;;;5037075;28;20486;-63
2024/02/23 11:56:07;;;;;;;1.40;0.83;;;10.40;58.30;;;;;;5037257;28;20442;-63
2024/02/23 11:58:34;;;;;;;2.83;0.90;;;10.50;57.90;;;;;;5035912;28;20539;-63
2024/02/23 12:01:02;;;;;;;1.20;1.03;;;10.50;57.90;;;;;;5036357;28;20500;-64
2024/02/23 12:03:29;;;;;;;1.77;1.10;;;10.50;57.70;;;;;;5035874;28;20897;-63
2024/02/23 12:05:57;;;;;;;3.73;1.00;;;10.50;57.70;;;;;;5035992;28;20453;-64
2024/02/23 12:08:25;;;;;;;2.60;0.70;;;10.50;57.60;;;;;;5036212;28;20974;-62
2024/02/23 12:10:53;;;;;;;3.40;1.23;;;10.60;57.90;;;;;;5019543;28;20539;-61
2024/02/23 12:13:21;;;;;;;1.67;1.00;;;10.70;57.60;;;;;;5036914;28;20544;-63
2024/02/23 12:15:48;;;;;;;1.07;0.80;;;10.70;57.40;;;;;;5037360;28;20538;-63
2024/02/23 12:18:15;;;;;;;5.23;0.80;;;10.80;57.60;;;;;;5036332;28;20854;-63
2024/02/23 12:20:42;;;;;;;4.13;1.00;;;10.90;57.40;;;;;;5036633;28;20453;-63
2024/02/23 12:23:10;;;;;;;2.17;1.00;;;11.00;57.20;;;;;;5037064;28;20464;-63
2024/02/23 12:25:36;;;;;;;2.43;1.27;;;11.10;57.10;;;;;;5037511;28;20473;-62
2024/02/23 12:28:04;;;;;;;3.20;0.90;;;11.10;56.80;;;;;;5037361;28;20447;-64
2024/02/23 12:30:33;;;;;;;2.13;0.80;;;11.20;56.70;;;;;;5037875;28;20900;-62
2024/02/23 12:33:06;;;;;;;1.40;1.00;;;11.20;56.40;;;;;;5038853;28;20529;-62
2024/02/23 12:35:32;;;;;;;1.60;0.90;;;11.20;55.80;;;;;;5041020;28;20510;-63
2024/02/23 12:37:59;;;;;;;2.80;1.00;;;11.10;55.80;;;;;;5040542;28;20462;-64
2024/02/23 12:40:26;;;;;;;2.57;1.20;;;11.10;55.80;;;;;;5041141;28;20452;-62
2024/02/23 12:42:53;;;;;;;2.97;1.47;;;11.20;56.00;;;;;;5042381;28;20468;-65
2024/02/23 12:45:19;;;;;;;2.47;1.20;;;11.20;56.00;;;;;;5043815;28;20449;-63
2024/02/23 12:47:48;;;;;;;2.63;1.23;;;11.30;56.30;;;;;;5040371;28;20554;-63
2024/02/23 12:50:14;;;;;;;2.17;1.00;;;11.40;56.30;;;;;;5040667;28;20438;-64
2024/02/23 12:52:41;;;;;;;2.67;1.00;;;11.60;56.20;;;;;;5040256;28;20472;-62
2024/02/23 12:55:09;;;;;;;1.10;0.80;;;11.70;55.70;;;;;;5040982;28;20483;-62
2024/02/23 12:57:35;;;;;;;1.57;0.97;;;11.60;55.30;;;;;;5042643;28;20470;-62